Time;durP1;ratioP1;P1;durP2;ratioP2;P2;SDS_P1;SDS_P2;PMS_P1;PMS_P2;Temp;Humidity;BMP_temperature;BMP_pressure;BME280_temperature;BME280_humidity;BME280_pressure;Samples;Min_cycle;Max_cycle;Signal;HPM_P1;HPM_P2
2024/01/26 00:02:04;;;;;;;1.85;1.17;;;8.40;99.90;;;;;;5051512;28;20235;-77
2024/01/26 00:04:31;;;;;;;1.30;1.20;;;8.40;99.90;;;;;;5050097;28;20293;-77
2024/01/26 00:06:59;;;;;;;1.58;1.48;;;8.40;99.90;;;;;;5050547;28;20219;-77
2024/01/26 00:09:25;;;;;;;1.60;1.48;;;8.40;99.90;;;;;;5050725;28;20282;-77
2024/01/26 00:11:52;;;;;;;1.95;1.65;;;8.40;99.90;;;;;;5050304;28;20212;-77
2024/01/26 00:14:19;;;;;;;1.42;1.23;;;8.50;99.90;;;;;;5050994;28;20224;-77
2024/01/26 00:16:45;;;;;;;1.20;1.08;;;8.50;99.90;;;;;;5050760;28;20682;-77
2024/01/26 00:19:12;;;;;;;1.20;1.10;;;8.50;99.90;;;;;;5051087;28;20677;-77
2024/01/26 00:21:39;;;;;;;1.52;1.42;;;8.50;99.90;;;;;;5047719;28;20270;-77
2024/01/26 00:24:08;;;;;;;1.20;1.10;;;8.50;99.90;;;;;;5030995;28;20202;-76
2024/01/26 00:26:35;;;;;;;1.23;0.90;;;8.60;99.90;;;;;;5040443;28;20212;-77
2024/01/26 00:29:01;;;;;;;1.00;0.90;;;8.60;99.90;;;;;;5037365;28;20638;-77
2024/01/26 00:31:28;;;;;;;0.90;0.90;;;8.60;99.90;;;;;;5031881;28;20205;-76
2024/01/26 00:33:55;;;;;;;1.80;1.20;;;8.60;99.90;;;;;;5051965;28;20228;-77
2024/01/26 00:36:22;;;;;;;0.93;0.82;;;8.60;99.90;;;;;;5042325;28;20201;-77
2024/01/26 00:38:48;;;;;;;1.05;0.95;;;8.50;99.90;;;;;;5031653;28;20236;-77
2024/01/26 00:41:16;;;;;;;1.15;1.05;;;8.50;99.90;;;;;;5031101;28;20225;-77
2024/01/26 00:43:43;;;;;;;1.20;1.10;;;8.50;99.90;;;;;;5031322;28;22068;-77
2024/01/26 00:46:10;;;;;;;1.17;1.00;;;8.50;99.90;;;;;;5037590;28;20209;-77
2024/01/26 00:48:36;;;;;;;1.42;1.30;;;8.50;99.90;;;;;;5032449;28;20221;-77
2024/01/26 00:51:03;;;;;;;1.10;1.00;;;8.50;99.90;;;;;;5039254;28;20205;-77
2024/01/26 00:53:30;;;;;;;1.20;1.08;;;8.50;99.90;;;;;;5031555;28;20244;-77
2024/01/26 00:55:57;;;;;;;1.38;1.08;;;8.50;99.90;;;;;;5031692;28;20591;-77
2024/01/26 00:58:25;;;;;;;1.00;0.90;;;8.50;99.90;;;;;;5047366;28;20208;-77
2024/01/26 01:00:51;;;;;;;1.00;0.90;;;8.50;99.90;;;;;;5042708;28;20797;-77
2024/01/26 01:03:19;;;;;;;1.50;1.00;;;8.40;99.90;;;;;;5042582;28;20748;-77
2024/01/26 01:05:46;;;;;;;1.13;0.88;;;8.40;99.90;;;;;;5032131;28;20213;-77
2024/01/26 01:08:13;;;;;;;1.05;0.95;;;8.30;99.90;;;;;;5030472;28;20209;-77
2024/01/26 01:10:40;;;;;;;0.70;0.60;;;8.20;99.90;;;;;;5047552;28;20749;-77
2024/01/26 01:13:10;;;;;;;1.35;0.90;;;8.20;99.90;;;;;;5037790;28;20652;-77
2024/01/26 01:15:40;;;;;;;1.10;1.00;;;8.20;99.90;;;;;;5035300;28;20239;-77
2024/01/26 01:18:06;;;;;;;1.10;0.90;;;8.20;99.90;;;;;;5045730;28;20245;-77
2024/01/26 01:20:33;;;;;;;0.90;0.80;;;8.20;99.90;;;;;;5032770;28;20598;-77
2024/01/26 01:23:00;;;;;;;1.90;1.05;;;8.20;99.90;;;;;;5039617;28;20233;-77
2024/01/26 01:25:27;;;;;;;1.00;0.80;;;8.20;99.90;;;;;;5032883;28;20209;-77
2024/01/26 01:27:53;;;;;;;1.02;0.90;;;8.20;99.90;;;;;;5032587;28;20506;-77
2024/01/26 01:30:20;;;;;;;2.38;1.35;;;8.20;99.90;;;;;;5032513;28;20230;-77
2024/01/26 01:32:48;;;;;;;1.00;0.90;;;8.30;99.90;;;;;;5042148;28;20248;-77
2024/01/26 01:35:15;;;;;;;1.20;0.95;;;8.30;99.90;;;;;;5036411;28;20212;-77
2024/01/26 01:37:42;;;;;;;2.33;1.13;;;8.30;99.90;;;;;;5040519;28;20219;-77
2024/01/26 01:40:10;;;;;;;0.90;0.80;;;8.30;99.90;;;;;;5032460;28;20598;-77
2024/01/26 01:42:36;;;;;;;3.72;1.10;;;8.20;99.90;;;;;;5040499;28;20617;-77
2024/01/26 01:45:12;;;;;;;1.65;1.00;;;8.20;99.90;;;;;;5040596;28;20216;-77
2024/01/26 01:47:38;;;;;;;1.20;1.10;;;8.20;99.90;;;;;;5033673;28;20637;-77
2024/01/26 01:50:08;;;;;;;1.08;0.98;;;8.20;99.90;;;;;;5032615;28;20216;-77
2024/01/26 01:52:35;;;;;;;1.30;0.95;;;8.20;99.90;;;;;;5040651;28;20649;-77
2024/01/26 01:55:02;;;;;;;1.00;0.82;;;8.20;99.90;;;;;;5033537;28;20213;-77
2024/01/26 01:57:32;;;;;;;1.25;0.90;;;8.20;99.90;;;;;;5037748;28;20216;-77
2024/01/26 01:59:59;;;;;;;1.00;0.90;;;8.10;99.90;;;;;;5036475;28;20674;-77
2024/01/26 02:02:26;;;;;;;1.00;0.90;;;8.20;99.90;;;;;;5037277;28;20228;-77
2024/01/26 02:04:52;;;;;;;1.38;1.10;;;8.20;99.90;;;;;;5036733;28;20216;-77
2024/01/26 02:07:20;;;;;;;0.90;0.70;;;8.10;99.90;;;;;;5043402;28;20230;-77
2024/01/26 02:09:48;;;;;;;1.70;1.10;;;8.10;99.90;;;;;;5038589;28;20593;-77
2024/01/26 02:12:15;;;;;;;1.00;0.90;;;8.20;99.90;;;;;;5041451;28;20233;-77
2024/01/26 02:14:44;;;;;;;1.08;0.98;;;8.10;99.90;;;;;;5044435;28;20219;-77
2024/01/26 02:17:10;;;;;;;1.27;0.80;;;8.10;99.90;;;;;;5041812;28;20207;-77
2024/01/26 02:19:37;;;;;;;1.15;0.95;;;8.10;99.90;;;;;;5038951;28;20205;-77
2024/01/26 02:22:04;;;;;;;1.58;0.90;;;8.10;99.90;;;;;;5036518;28;20275;-77
2024/01/26 02:24:32;;;;;;;1.10;1.00;;;8.10;99.90;;;;;;5038001;28;20236;-77
2024/01/26 02:26:59;;;;;;;2.25;1.05;;;8.10;99.90;;;;;;5036863;28;20205;-77
2024/01/26 02:29:26;;;;;;;0.88;0.88;;;8.10;99.90;;;;;;5037392;28;20632;-77
2024/01/26 02:31:52;;;;;;;1.00;0.80;;;8.10;99.90;;;;;;5037478;28;20205;-77
2024/01/26 02:34:19;;;;;;;0.85;0.75;;;8.10;99.90;;;;;;5043306;28;20202;-77
2024/01/26 02:36:46;;;;;;;1.15;0.90;;;8.10;99.90;;;;;;5040082;28;20585;-76
2024/01/26 02:39:12;;;;;;;0.90;0.70;;;8.00;99.90;;;;;;5041688;28;20206;-77
2024/01/26 02:41:41;;;;;;;1.67;1.27;;;8.00;99.90;;;;;;5038866;28;20239;-77
2024/01/26 02:44:09;;;;;;;1.00;0.90;;;7.90;99.90;;;;;;5046681;28;20632;-77
2024/01/26 02:46:35;;;;;;;1.15;1.05;;;7.90;99.90;;;;;;5040152;28;20209;-77
2024/01/26 02:49:03;;;;;;;0.93;0.82;;;8.00;99.90;;;;;;5043272;28;20698;-77
2024/01/26 02:51:29;;;;;;;1.15;1.00;;;7.90;99.90;;;;;;5044150;28;20669;-77
2024/01/26 02:53:56;;;;;;;0.80;0.80;;;8.00;99.90;;;;;;5040204;28;20629;-77
2024/01/26 02:56:23;;;;;;;0.90;0.80;;;8.00;99.90;;;;;;5046652;28;20701;-77
2024/01/26 02:58:51;;;;;;;0.90;0.80;;;8.00;99.90;;;;;;5038405;28;20621;-77
2024/01/26 03:01:18;;;;;;;1.00;0.90;;;8.00;99.90;;;;;;5037037;28;20214;-77
2024/01/26 03:03:45;;;;;;;1.17;1.08;;;8.00;99.90;;;;;;5039156;28;20281;-77
2024/01/26 03:06:12;;;;;;;2.35;1.00;;;7.90;99.90;;;;;;5036839;28;20216;-77
2024/01/26 03:08:39;;;;;;;1.25;1.15;;;7.90;99.90;;;;;;5039118;28;20581;-77
2024/01/26 03:11:06;;;;;;;2.20;1.00;;;7.90;99.90;;;;;;5037020;28;20208;-77
2024/01/26 03:13:33;;;;;;;1.20;1.10;;;7.90;99.90;;;;;;5044742;28;20240;-77
2024/01/26 03:16:01;;;;;;;1.35;1.10;;;7.90;99.90;;;;;;5043106;28;20213;-77
2024/01/26 03:18:27;;;;;;;1.38;0.90;;;7.90;99.90;;;;;;5038209;28;20209;-77
2024/01/26 03:20:54;;;;;;;1.15;1.05;;;7.90;99.90;;;;;;5038026;28;20228;-77
2024/01/26 03:23:21;;;;;;;2.50;1.15;;;7.90;99.90;;;;;;5037328;28;20232;-77
2024/01/26 03:25:48;;;;;;;1.30;1.05;;;7.90;99.90;;;;;;5042977;28;20247;-77
2024/01/26 03:28:15;;;;;;;1.23;1.13;;;7.90;99.90;;;;;;5048250;28;20203;-77
2024/01/26 03:30:43;;;;;;;2.80;1.30;;;7.90;99.90;;;;;;5046184;28;20649;-77
2024/01/26 03:33:11;;;;;;;1.42;1.23;;;7.90;99.90;;;;;;5037567;28;20251;-77
2024/01/26 03:35:38;;;;;;;1.30;1.00;;;7.90;99.90;;;;;;5039432;28;20205;-77
2024/01/26 03:38:05;;;;;;;1.20;1.00;;;7.80;99.90;;;;;;5037250;28;20566;-77
2024/01/26 03:40:31;;;;;;;1.10;0.90;;;7.80;99.90;;;;;;5038555;28;20201;-77
2024/01/26 03:42:58;;;;;;;1.10;1.00;;;7.80;99.90;;;;;;5043516;28;20239;-77
2024/01/26 03:45:25;;;;;;;1.00;0.90;;;7.80;99.90;;;;;;5043518;28;20204;-77
2024/01/26 03:47:51;;;;;;;0.90;0.80;;;7.80;99.90;;;;;;5039135;28;20213;-77
2024/01/26 03:50:19;;;;;;;1.30;1.00;;;7.80;99.90;;;;;;5043069;28;20209;-77
2024/01/26 03:52:46;;;;;;;1.02;0.93;;;7.80;99.90;;;;;;5039763;28;20227;-77
2024/01/26 03:55:13;;;;;;;1.02;0.93;;;7.80;99.90;;;;;;5042875;28;20729;-77
2024/01/26 03:57:40;;;;;;;1.17;1.08;;;7.80;99.90;;;;;;5046056;28;20200;-78
2024/01/26 04:00:08;;;;;;;1.40;1.27;;;7.80;99.90;;;;;;5044281;28;20215;-77
2024/01/26 04:02:34;;;;;;;1.08;0.98;;;7.80;99.90;;;;;;5045206;28;20229;-78
2024/01/26 04:05:02;;;;;;;2.75;1.00;;;7.80;99.90;;;;;;5045210;28;20582;-78
2024/01/26 04:07:30;;;;;;;1.10;1.00;;;7.80;99.90;;;;;;5045118;28;20213;-78
2024/01/26 04:09:56;;;;;;;2.35;1.17;;;7.70;99.90;;;;;;5046335;28;20212;-78
2024/01/26 04:12:24;;;;;;;1.20;1.00;;;7.70;99.90;;;;;;5035728;28;20230;-77
2024/01/26 04:14:50;;;;;;;1.40;1.30;;;7.70;99.90;;;;;;5038347;28;20625;-78
2024/01/26 04:17:17;;;;;;;1.20;1.10;;;7.70;99.90;;;;;;5040429;28;20223;-78
2024/01/26 04:19:44;;;;;;;1.27;1.17;;;7.80;99.90;;;;;;5038071;28;20203;-78
2024/01/26 04:22:11;;;;;;;1.38;1.13;;;7.70;99.90;;;;;;5041286;28;20600;-78
2024/01/26 04:24:39;;;;;;;1.00;0.90;;;7.70;99.90;;;;;;5037785;28;20248;-77
2024/01/26 04:27:06;;;;;;;1.10;1.00;;;7.70;99.90;;;;;;5041627;28;20216;-77
2024/01/26 04:29:32;;;;;;;1.00;0.90;;;7.70;99.90;;;;;;5045637;28;20212;-79
2024/01/26 04:31:59;;;;;;;1.35;1.17;;;7.70;99.90;;;;;;5045386;28;20245;-78
2024/01/26 04:34:26;;;;;;;1.10;1.00;;;7.70;99.90;;;;;;5043601;28;20668;-78
2024/01/26 04:36:52;;;;;;;0.80;0.80;;;7.70;99.90;;;;;;5044969;28;20215;-78
2024/01/26 04:39:19;;;;;;;1.23;1.08;;;7.70;99.90;;;;;;5045247;28;20208;-78
2024/01/26 04:41:47;;;;;;;0.82;0.70;;;7.70;99.90;;;;;;5045797;28;20573;-78
2024/01/26 04:44:14;;;;;;;1.20;1.10;;;7.80;99.90;;;;;;5043371;28;20461;-78
2024/01/26 04:46:41;;;;;;;2.05;1.35;;;7.80;99.90;;;;;;5044475;28;20226;-78
2024/01/26 04:49:08;;;;;;;1.00;0.85;;;7.80;99.90;;;;;;5040371;28;20667;-77
2024/01/26 04:51:37;;;;;;;1.25;1.15;;;7.80;99.90;;;;;;5045858;28;20557;-77
2024/01/26 04:54:04;;;;;;;1.60;1.17;;;7.90;99.90;;;;;;5041738;28;20211;-77
2024/01/26 04:56:30;;;;;;;1.10;0.90;;;7.90;99.90;;;;;;5039143;28;20581;-77
2024/01/26 04:58:59;;;;;;;1.00;0.90;;;7.90;99.90;;;;;;5045321;28;20591;-77
2024/01/26 05:01:26;;;;;;;1.02;0.80;;;7.90;99.90;;;;;;5043048;28;20228;-77
2024/01/26 05:03:53;;;;;;;1.02;0.93;;;7.90;99.90;;;;;;5045940;28;20237;-77
2024/01/26 05:06:19;;;;;;;1.20;1.05;;;7.90;99.90;;;;;;5041467;28;20671;-75
2024/01/26 05:08:47;;;;;;;8.25;1.20;;;8.00;99.90;;;;;;5041607;28;20211;-76
2024/01/26 05:11:13;;;;;;;1.20;1.10;;;8.00;99.90;;;;;;5038539;28;20557;-76
2024/01/26 05:13:40;;;;;;;1.20;0.85;;;7.90;99.90;;;;;;5050053;28;20564;-76
2024/01/26 05:16:08;;;;;;;3.75;1.48;;;8.00;99.90;;;;;;5038700;28;20215;-76
2024/01/26 05:18:35;;;;;;;1.10;1.00;;;8.00;99.90;;;;;;5044564;28;20209;-76
2024/01/26 05:21:02;;;;;;;1.20;1.05;;;8.00;99.90;;;;;;5039588;28;20218;-75
2024/01/26 05:23:28;;;;;;;1.40;1.10;;;8.00;99.90;;;;;;5039241;28;20299;-76
2024/01/26 05:25:56;;;;;;;1.00;0.90;;;8.00;99.90;;;;;;5041251;28;20212;-75
2024/01/26 05:28:23;;;;;;;1.77;1.30;;;8.00;99.90;;;;;;5050533;28;20233;-76
2024/01/26 05:30:49;;;;;;;0.98;0.85;;;8.00;99.90;;;;;;5046996;28;20208;-77
2024/01/26 05:33:18;;;;;;;1.20;0.90;;;8.00;99.90;;;;;;5042496;28;20233;-77
2024/01/26 05:35:45;;;;;;;1.00;0.90;;;7.90;99.90;;;;;;5049808;28;20291;-77
2024/01/26 05:38:12;;;;;;;1.42;1.00;;;7.90;99.90;;;;;;5042810;28;20666;-77
2024/01/26 05:40:39;;;;;;;1.10;1.00;;;7.90;99.90;;;;;;5044787;28;20204;-77
2024/01/26 05:43:06;;;;;;;1.35;1.25;;;7.90;99.90;;;;;;5048026;28;20243;-77
2024/01/26 05:45:33;;;;;;;1.00;0.80;;;7.90;99.90;;;;;;5043889;28;20773;-77
2024/01/26 05:47:59;;;;;;;1.10;1.00;;;7.90;99.90;;;;;;5049989;28;20219;-77
2024/01/26 05:50:27;;;;;;;1.30;1.20;;;7.90;99.90;;;;;;5050348;28;20205;-77
2024/01/26 05:52:54;;;;;;;1.23;1.08;;;7.80;99.90;;;;;;5045918;28;20705;-77
2024/01/26 05:55:21;;;;;;;1.00;0.90;;;7.80;99.90;;;;;;5049820;28;20207;-77
2024/01/26 05:57:48;;;;;;;1.75;1.30;;;7.80;99.90;;;;;;5046135;28;20208;-77
2024/01/26 06:00:15;;;;;;;1.15;1.05;;;7.80;99.90;;;;;;5042931;28;20218;-77
2024/01/26 06:02:41;;;;;;;1.38;1.27;;;7.70;99.90;;;;;;5045289;28;21834;-77
2024/01/26 06:05:08;;;;;;;1.27;1.00;;;7.70;99.90;;;;;;5045733;28;20216;-77
2024/01/26 06:07:36;;;;;;;1.92;1.30;;;7.70;99.90;;;;;;5046478;28;20208;-77
2024/01/26 06:10:03;;;;;;;1.00;0.90;;;7.60;99.90;;;;;;5044578;28;20219;-77
2024/01/26 06:12:30;;;;;;;1.83;1.02;;;7.60;99.90;;;;;;5047864;28;20219;-77
2024/01/26 06:14:57;;;;;;;1.27;1.08;;;7.60;99.90;;;;;;5046542;28;20208;-77
2024/01/26 06:17:24;;;;;;;2.17;0.90;;;7.60;99.90;;;;;;5049842;28;20208;-77
2024/01/26 06:19:51;;;;;;;2.92;1.63;;;7.60;99.90;;;;;;5046379;28;20215;-77
2024/01/26 06:22:18;;;;;;;0.90;0.80;;;7.60;99.90;;;;;;5042654;28;20286;-77
2024/01/26 06:24:46;;;;;;;0.90;0.77;;;7.60;99.90;;;;;;5049509;28;20204;-77
2024/01/26 06:27:13;;;;;;;1.10;1.00;;;7.60;99.90;;;;;;5049800;28;20216;-77
2024/01/26 06:29:39;;;;;;;1.20;1.00;;;7.70;99.90;;;;;;5046359;28;20487;-77
2024/01/26 06:32:06;;;;;;;1.00;0.90;;;7.70;99.90;;;;;;5044815;28;20225;-77
2024/01/26 06:34:33;;;;;;;2.33;1.10;;;7.80;99.90;;;;;;5044470;28;20289;-77
2024/01/26 06:37:00;;;;;;;1.17;1.05;;;7.90;99.90;;;;;;5045724;28;20208;-77
2024/01/26 06:39:27;;;;;;;1.60;0.90;;;7.90;99.90;;;;;;5047310;28;20205;-77
2024/01/26 06:41:55;;;;;;;1.00;0.90;;;8.00;99.90;;;;;;5045996;28;20227;-77
2024/01/26 06:44:22;;;;;;;1.30;1.00;;;8.10;99.90;;;;;;5042535;28;20213;-77
2024/01/26 06:46:48;;;;;;;1.10;1.00;;;8.10;99.90;;;;;;5046741;28;20208;-77
2024/01/26 06:49:15;;;;;;;2.15;1.02;;;8.10;99.90;;;;;;5043806;28;20212;-77
2024/01/26 06:51:42;;;;;;;1.00;0.90;;;8.20;99.90;;;;;;5051720;28;20217;-81
2024/01/26 06:54:09;;;;;;;1.08;0.80;;;8.20;99.90;;;;;;5046779;28;20203;-79
2024/01/26 06:56:35;;;;;;;1.00;0.90;;;8.20;99.90;;;;;;5049974;28;20220;-79
2024/01/26 06:59:03;;;;;;;1.17;1.00;;;8.30;99.90;;;;;;5051015;28;20242;-78
2024/01/26 07:01:30;;;;;;;1.30;1.05;;;8.30;99.90;;;;;;5051711;28;20588;-78
2024/01/26 07:03:57;;;;;;;1.13;1.00;;;8.40;99.90;;;;;;5051287;28;20237;-78
2024/01/26 07:06:23;;;;;;;0.80;0.80;;;8.40;99.90;;;;;;5047054;28;20694;-78
2024/01/26 07:08:50;;;;;;;1.20;0.90;;;8.40;99.90;;;;;;5047823;28;20223;-78
2024/01/26 07:11:19;;;;;;;0.90;0.70;;;8.50;99.90;;;;;;5045209;28;20222;-77
2024/01/26 07:13:45;;;;;;;3.75;1.35;;;8.60;99.90;;;;;;5047371;28;20225;-78
2024/01/26 07:16:14;;;;;;;1.00;0.90;;;8.60;99.90;;;;;;5045957;28;20201;-78
2024/01/26 07:18:40;;;;;;;1.05;0.90;;;8.70;99.90;;;;;;5047618;28;20202;-77
2024/01/26 07:21:08;;;;;;;1.75;1.20;;;8.70;99.90;;;;;;5054051;28;20215;-77
2024/01/26 07:23:35;;;;;;;1.90;1.20;;;8.70;99.90;;;;;;5052189;28;20726;-77
2024/01/26 07:26:02;;;;;;;0.90;0.73;;;8.70;99.90;;;;;;5053905;28;20217;-77
2024/01/26 07:28:28;;;;;;;4.13;1.10;;;8.70;99.90;;;;;;5056258;28;20204;-77
2024/01/26 07:30:55;;;;;;;1.48;1.02;;;8.70;99.90;;;;;;5052510;28;20212;-77
2024/01/26 07:33:23;;;;;;;3.35;1.42;;;8.70;99.90;;;;;;5049477;28;20224;-77
2024/01/26 07:35:50;;;;;;;1.48;1.38;;;8.60;99.90;;;;;;5048191;28;20208;-77
2024/01/26 07:38:16;;;;;;;1.77;1.17;;;8.60;99.90;;;;;;5051900;28;20220;-77
2024/01/26 07:40:43;;;;;;;1.35;1.25;;;8.60;99.90;;;;;;5055260;28;20201;-77
2024/01/26 07:43:10;;;;;;;1.70;1.58;;;8.60;99.90;;;;;;5051684;28;20236;-77
2024/01/26 07:45:36;;;;;;;0.95;0.90;;;8.60;99.90;;;;;;5051021;28;20216;-77
2024/01/26 07:48:04;;;;;;;1.33;0.98;;;8.60;99.90;;;;;;5042434;28;20209;-77
2024/01/26 07:50:32;;;;;;;2.13;1.10;;;8.60;99.90;;;;;;5054391;28;20219;-77
2024/01/26 07:52:59;;;;;;;1.02;0.93;;;8.60;99.90;;;;;;5053628;28;20230;-77
2024/01/26 07:55:26;;;;;;;1.33;1.23;;;8.60;99.90;;;;;;5052826;28;20213;-78
2024/01/26 07:57:53;;;;;;;1.52;1.00;;;8.70;99.90;;;;;;5055074;28;20211;-78
2024/01/26 08:00:21;;;;;;;0.82;0.80;;;8.80;99.90;;;;;;5055012;28;20212;-78
2024/01/26 08:02:48;;;;;;;1.08;0.90;;;9.00;99.90;;;;;;5049000;28;20681;-78
2024/01/26 08:05:15;;;;;;;1.20;1.10;;;9.10;99.90;;;;;;5055089;28;20209;-78
2024/01/26 08:07:43;;;;;;;1.30;1.10;;;9.20;99.90;;;;;;5054001;28;20205;-77
2024/01/26 08:10:10;;;;;;;1.00;0.90;;;9.30;99.90;;;;;;5053554;28;20688;-77
2024/01/26 08:12:37;;;;;;;1.10;0.98;;;9.40;99.90;;;;;;5046861;28;20218;-78
2024/01/26 08:15:05;;;;;;;1.88;1.20;;;9.40;99.90;;;;;;5047209;28;20215;-77
2024/01/26 08:17:32;;;;;;;1.02;0.93;;;9.50;99.90;;;;;;5047201;28;20256;-78
2024/01/26 08:20:01;;;;;;;1.20;0.98;;;9.50;99.90;;;;;;5049578;28;20295;-78
2024/01/26 08:22:27;;;;;;;1.20;1.10;;;9.50;99.90;;;;;;5048788;28;20587;-78
2024/01/26 08:24:58;;;;;;;3.83;1.13;;;9.60;99.90;;;;;;5049335;28;20212;-78
2024/01/26 08:27:25;;;;;;;1.25;1.10;;;9.70;99.90;;;;;;5046949;28;20212;-78
2024/01/26 08:29:52;;;;;;;0.90;0.80;;;9.80;99.90;;;;;;5057537;28;20236;-77
2024/01/26 08:32:19;;;;;;;1.20;0.90;;;9.90;99.90;;;;;;5058327;28;20240;-78
2024/01/26 08:34:46;;;;;;;1.35;1.10;;;10.00;99.90;;;;;;5061268;28;20212;-77
2024/01/26 08:37:12;;;;;;;1.98;1.30;;;10.00;99.90;;;;;;5051445;28;20205;-77
2024/01/26 08:39:39;;;;;;;1.23;1.02;;;10.00;99.90;;;;;;5046311;28;20596;-77
2024/01/26 08:42:08;;;;;;;2.35;1.30;;;9.90;99.90;;;;;;5049990;28;20221;-78
2024/01/26 08:44:35;;;;;;;1.38;1.08;;;9.90;99.90;;;;;;5047359;28;20718;-78
2024/01/26 08:47:01;;;;;;;1.30;1.00;;;9.90;99.90;;;;;;5048613;28;20209;-77
2024/01/26 08:49:28;;;;;;;1.08;0.98;;;10.00;99.90;;;;;;5044948;28;20213;-77
2024/01/26 08:51:57;;;;;;;1.00;0.90;;;10.00;99.90;;;;;;5049544;28;20445;-77
2024/01/26 08:54:24;;;;;;;0.90;0.80;;;10.00;99.90;;;;;;5045970;28;20247;-78
2024/01/26 08:56:51;;;;;;;1.00;0.80;;;10.10;99.90;;;;;;5048785;28;20736;-77
2024/01/26 08:59:19;;;;;;;1.42;1.20;;;10.30;99.90;;;;;;5046898;28;20205;-77
2024/01/26 09:01:46;;;;;;;1.30;1.20;;;10.30;99.90;;;;;;5049488;28;20627;-78
2024/01/26 09:04:13;;;;;;;1.00;0.90;;;10.40;99.90;;;;;;5046697;28;20300;-77
2024/01/26 09:06:40;;;;;;;1.00;0.90;;;10.50;99.90;;;;;;5047113;28;20209;-77
2024/01/26 09:09:07;;;;;;;1.10;1.00;;;10.60;99.90;;;;;;5050345;28;20205;-78
2024/01/26 09:11:34;;;;;;;1.60;1.15;;;10.70;99.90;;;;;;5047756;28;20682;-78
2024/01/26 09:14:01;;;;;;;1.85;1.15;;;10.50;99.90;;;;;;5048916;28;20201;-78
2024/01/26 09:16:29;;;;;;;1.80;1.15;;;10.40;99.90;;;;;;5047561;28;20205;-78
2024/01/26 09:18:56;;;;;;;1.05;0.95;;;10.30;99.90;;;;;;5047859;28;20209;-77
2024/01/26 09:21:23;;;;;;;1.20;1.10;;;10.30;99.90;;;;;;5048071;28;20209;-78
2024/01/26 09:23:49;;;;;;;0.95;0.80;;;10.20;99.90;;;;;;5047998;28;20235;-78
2024/01/26 09:26:16;;;;;;;1.15;0.95;;;10.20;99.90;;;;;;5047593;28;20212;-77
2024/01/26 09:28:43;;;;;;;1.75;1.40;;;10.30;99.90;;;;;;5047002;28;20205;-77
2024/01/26 09:31:10;;;;;;;1.15;1.05;;;10.30;99.90;;;;;;5048471;28;20204;-77
2024/01/26 09:33:38;;;;;;;1.10;1.00;;;10.40;99.90;;;;;;5047379;28;20671;-77
2024/01/26 09:36:05;;;;;;;1.20;1.10;;;10.40;99.90;;;;;;5048412;28;20217;-77
2024/01/26 09:38:32;;;;;;;1.95;1.00;;;10.40;99.90;;;;;;5047988;28;20205;-77
2024/01/26 09:40:59;;;;;;;1.00;0.90;;;10.30;99.90;;;;;;5048423;28;20224;-77
2024/01/26 09:43:26;;;;;;;2.00;1.00;;;10.30;99.90;;;;;;5047718;28;20245;-78
2024/01/26 09:45:53;;;;;;;1.10;0.90;;;10.30;99.90;;;;;;5048745;28;20716;-77
2024/01/26 09:48:20;;;;;;;1.00;0.90;;;10.30;99.90;;;;;;5048536;28;20426;-78
2024/01/26 09:50:51;;;;;;;1.50;1.40;;;10.20;99.90;;;;;;5049761;28;20288;-77
2024/01/26 09:53:18;;;;;;;1.00;0.80;;;10.20;99.90;;;;;;5049640;28;20226;-77
2024/01/26 09:55:47;;;;;;;0.82;0.80;;;10.30;99.90;;;;;;5048789;28;20220;-78
2024/01/26 09:58:14;;;;;;;1.10;0.90;;;10.30;99.90;;;;;;5049285;28;20679;-78
2024/01/26 10:00:41;;;;;;;2.85;1.08;;;10.30;99.90;;;;;;5048574;28;20206;-77
2024/01/26 10:03:08;;;;;;;1.08;0.88;;;10.40;99.90;;;;;;5049450;28;20338;-78
2024/01/26 10:05:36;;;;;;;1.15;0.98;;;10.50;99.90;;;;;;5048030;28;20729;-78
2024/01/26 10:08:08;;;;;;;1.77;1.30;;;10.50;99.90;;;;;;5049703;28;20236;-77
2024/01/26 10:10:35;;;;;;;1.02;0.90;;;10.60;99.90;;;;;;5048914;28;20233;-78
2024/01/26 10:13:02;;;;;;;1.17;1.08;;;10.60;99.90;;;;;;5049196;28;20221;-78
2024/01/26 10:15:29;;;;;;;1.67;1.58;;;10.60;99.90;;;;;;5048872;28;20213;-78
2024/01/26 10:17:56;;;;;;;1.50;1.08;;;10.60;99.90;;;;;;5052804;28;20205;-78
2024/01/26 10:20:22;;;;;;;1.67;1.25;;;10.60;99.90;;;;;;5053442;28;20201;-78
2024/01/26 10:22:49;;;;;;;1.45;1.00;;;10.70;99.90;;;;;;5053463;28;20237;-77
2024/01/26 10:25:17;;;;;;;1.27;1.10;;;10.70;99.90;;;;;;5053764;28;20213;-78
2024/01/26 10:27:44;;;;;;;1.67;1.30;;;10.70;99.90;;;;;;5053488;28;20300;-78
2024/01/26 10:30:13;;;;;;;1.40;1.30;;;10.70;99.90;;;;;;5054098;28;20213;-77
2024/01/26 10:32:40;;;;;;;1.20;1.10;;;10.80;99.90;;;;;;5053778;28;24040;-78
2024/01/26 10:35:08;;;;;;;1.30;1.20;;;10.80;99.90;;;;;;5054456;28;20206;-78
2024/01/26 10:37:36;;;;;;;1.95;1.48;;;10.80;99.90;;;;;;5053106;28;20218;-78
2024/01/26 10:40:05;;;;;;;1.73;1.40;;;10.80;99.90;;;;;;5053707;28;20235;-78
2024/01/26 10:42:34;;;;;;;1.40;1.10;;;10.80;99.90;;;;;;5052265;28;20252;-78
2024/01/26 10:45:03;;;;;;;1.85;1.15;;;10.90;99.90;;;;;;5054017;28;20214;-78
2024/01/26 10:47:30;;;;;;;1.30;1.20;;;10.90;99.90;;;;;;5052722;28;20383;-78
2024/01/26 10:49:59;;;;;;;0.85;0.85;;;10.90;99.90;;;;;;5053632;28;20701;-78
2024/01/26 10:52:26;;;;;;;2.67;1.10;;;11.00;99.90;;;;;;5044835;28;20226;-78
2024/01/26 10:54:53;;;;;;;1.40;1.30;;;11.00;99.90;;;;;;5041591;28;20207;-78
2024/01/26 10:57:20;;;;;;;2.00;1.08;;;11.00;99.90;;;;;;5033385;28;20214;-78
2024/01/26 10:59:49;;;;;;;1.75;1.08;;;11.00;99.90;;;;;;5044962;28;20576;-78
2024/01/26 11:02:22;;;;;;;1.05;0.95;;;11.00;99.90;;;;;;5037711;28;20234;-78
2024/01/26 11:04:50;;;;;;;1.23;1.10;;;11.10;99.90;;;;;;5044864;28;20804;-78
2024/01/26 11:07:19;;;;;;;0.80;0.75;;;11.10;99.90;;;;;;5045360;28;20218;-78
2024/01/26 11:09:46;;;;;;;1.20;1.00;;;11.20;99.90;;;;;;5044554;28;20206;-78
2024/01/26 11:12:21;;;;;;;1.05;0.93;;;11.20;99.90;;;;;;5038046;28;20224;-78
2024/01/26 11:15:13;;;;;;;1.10;1.00;;;11.20;99.90;;;;;;5033061;28;20586;-78
2024/01/26 11:17:50;;;;;;;3.20;1.13;;;11.10;99.90;;;;;;5035568;28;20199;-78
2024/01/26 11:20:22;;;;;;;1.23;1.13;;;11.10;99.90;;;;;;5037585;28;20207;-77
2024/01/26 11:22:59;;;;;;;1.38;1.10;;;11.10;99.90;;;;;;5033108;28;20234;-77
2024/01/26 11:25:26;;;;;;;1.30;1.00;;;11.10;99.90;;;;;;5033891;28;20213;-77
2024/01/26 11:28:00;;;;;;;1.10;1.00;;;11.10;99.90;;;;;;5042107;28;20222;-77
2024/01/26 11:30:29;;;;;;;1.10;1.00;;;11.10;99.90;;;;;;5050549;28;20209;-78
2024/01/26 11:32:57;;;;;;;1.33;0.98;;;11.10;99.90;;;;;;5042296;28;20244;-78
2024/01/26 11:35:24;;;;;;;1.60;1.20;;;11.10;99.90;;;;;;5050456;28;20212;-78
2024/01/26 11:37:52;;;;;;;1.45;1.30;;;11.20;99.90;;;;;;5039874;28;20237;-78
2024/01/26 11:40:20;;;;;;;4.30;1.20;;;11.20;99.90;;;;;;5043360;28;20214;-78
2024/01/26 11:42:47;;;;;;;1.50;0.98;;;11.20;99.90;;;;;;5043238;28;20225;-77
2024/01/26 11:45:35;;;;;;;1.20;1.02;;;11.20;99.90;;;;;;5051226;28;20694;-78
2024/01/26 11:48:07;;;;;;;1.33;1.05;;;11.10;99.90;;;;;;5033858;28;20210;-77
2024/01/26 11:50:33;;;;;;;1.23;1.13;;;11.20;99.90;;;;;;5044713;28;20233;-78
2024/01/26 11:53:00;;;;;;;1.40;1.10;;;11.20;99.90;;;;;;5039013;28;20240;-78
2024/01/26 11:55:29;;;;;;;1.15;1.05;;;11.20;99.90;;;;;;5038689;28;20217;-78
2024/01/26 11:57:55;;;;;;;1.00;0.90;;;11.20;99.90;;;;;;5034904;28;20760;-78
2024/01/26 12:00:23;;;;;;;1.55;1.10;;;11.20;99.90;;;;;;5034842;28;20213;-78
2024/01/26 12:02:50;;;;;;;2.13;1.10;;;11.30;99.90;;;;;;5048947;28;20234;-78
2024/01/26 12:05:18;;;;;;;1.65;1.10;;;11.30;99.90;;;;;;5048224;28;20223;-78
2024/01/26 12:07:46;;;;;;;1.08;0.95;;;11.20;99.90;;;;;;5041947;28;20209;-77
2024/01/26 12:10:14;;;;;;;1.90;1.52;;;11.30;99.90;;;;;;5042415;28;20202;-78
2024/01/26 12:12:41;;;;;;;1.10;0.90;;;11.30;99.90;;;;;;5043667;28;20749;-78
2024/01/26 12:15:09;;;;;;;0.90;0.80;;;11.20;99.90;;;;;;5043246;28;20202;-78
2024/01/26 12:17:36;;;;;;;1.60;1.50;;;11.20;99.90;;;;;;5051878;28;20705;-78
2024/01/26 12:20:05;;;;;;;1.65;1.23;;;11.10;99.90;;;;;;5042490;28;20287;-78
2024/01/26 12:22:34;;;;;;;1.80;1.25;;;11.10;99.90;;;;;;5036942;28;20236;-77
2024/01/26 12:25:02;;;;;;;1.10;0.80;;;11.20;99.90;;;;;;5038307;28;20244;-78
2024/01/26 12:27:29;;;;;;;1.50;1.00;;;11.20;99.90;;;;;;5043658;28;20413;-77
2024/01/26 12:29:56;;;;;;;1.30;1.15;;;11.30;99.90;;;;;;5033209;28;20229;-77
2024/01/26 12:32:23;;;;;;;1.45;1.00;;;11.30;99.90;;;;;;5033315;28;20222;-77
2024/01/26 12:34:49;;;;;;;0.95;0.85;;;11.30;99.90;;;;;;5034225;28;20210;-77
2024/01/26 12:37:16;;;;;;;1.33;0.90;;;11.30;99.90;;;;;;5039865;28;20204;-76
2024/01/26 12:39:44;;;;;;;1.25;0.90;;;11.20;99.90;;;;;;5040935;28;20228;-77
2024/01/26 12:42:11;;;;;;;1.30;1.20;;;11.20;99.90;;;;;;5039418;28;20228;-77
2024/01/26 12:44:37;;;;;;;0.80;0.70;;;11.10;99.90;;;;;;5037651;28;20220;-75
2024/01/26 12:47:04;;;;;;;1.20;1.10;;;11.10;99.90;;;;;;5040158;28;20199;-76
2024/01/26 12:49:32;;;;;;;2.30;1.00;;;11.10;99.90;;;;;;5041106;28;20225;-76
2024/01/26 12:51:59;;;;;;;0.98;0.80;;;11.10;99.90;;;;;;5040318;28;20375;-76
2024/01/26 12:54:26;;;;;;;1.27;1.10;;;11.10;99.90;;;;;;5040411;28;20264;-76